WetterOnline ( https://www.wetteronline.de )

Wetter aktuell Vogelsberg

Aktuelles Wetter: Hoherodskopf/Vogelsberg (743m)

6-stündlich | Neueste Meldungen
Ortszeit Temperatur Wetter
So, 02.10. 2:00 8.3° C Nebel
Sa, 01.10. 20:00 9.1° C leicht bewölkt
Sa, 01.10. 14:00 7.6° C leichter Regen
Sa, 01.10. 8:00 5.7° C Regen
Sa, 01.10. 2:00 5.8° C wolkig
Fr, 30.09. 20:00 7.9° C wolkenlos
Fr, 30.09. 14:00 9.2° C wolkig
Fr, 30.09. 8:00 5.7° C wolkenlos
Ortszeit Temperatur Wetter
So, 02.10. 2:00 8.3° C Nebel
So, 02.10. 1:50 8.3° C Nebel
So, 02.10. 1:40 8.3° C Nebel
So, 02.10. 1:30 8.3° C Nebel
So, 02.10. 1:20 8.3° C Nebel
So, 02.10. 1:10 8.4° C Nebel
So, 02.10. 1:00 8.5° C Nebel
So, 02.10. 0:30 8.7° C Nebel
So, 02.10. 0:00 8.8° C Nebel
Sa, 01.10. 23:30 9.0° C Nebel
Sa, 01.10. 23:00 9.1° C Nebel
Ortszeit Relative Feuchte Sichtweite
So, 02.10. 2:00 100% <100 m
Sa, 01.10. 20:00 95% 30 km
Sa, 01.10. 14:00 100% <100 m
Sa, 01.10. 8:00 100% <100 m
Sa, 01.10. 2:00 97% 13 km
Fr, 30.09. 20:00 79% 50 km
Fr, 30.09. 14:00 76% 50 km
Fr, 30.09. 8:00 89% 30 km
Ortszeit Relative Feuchte Sichtweite
So, 02.10. 2:00 100% <100 m
So, 02.10. 1:50 100% -
So, 02.10. 1:40 100% -
So, 02.10. 1:30 100% <100 m
So, 02.10. 1:20 100% -
So, 02.10. 1:10 100% -
So, 02.10. 1:00 100% <100 m
So, 02.10. 0:30 100% <100 m
So, 02.10. 0:00 100% <100 m
Sa, 01.10. 23:30 100% <100 m
Sa, 01.10. 23:00 100% <100 m
Ortszeit Niederschlagsmenge Niederschlagsart
So, 02.10. 2:00 0.0 l/m2 in 6 Std. -
Sa, 01.10. 20:00 18 l/m2 in 12 Std. Regen
Sa, 01.10. 14:00 10 l/m2 in 6 Std. Regen, Niederschlag
Sa, 01.10. 8:00 4 l/m2 in 12 Std. Regen, Niederschlag
Sa, 01.10. 2:00 0.0 l/m2 in 6 Std. -
Fr, 30.09. 20:00 0.0 l/m2 in 12 Std. -
Fr, 30.09. 14:00 0.0 l/m2 in 6 Std. -
Fr, 30.09. 8:00 0.0 l/m2 in 12 Std. -
Ortszeit Niederschlagsmenge Niederschlagsart
So, 02.10. 2:00 0.0 l/m2 in 1 Std. -
So, 02.10. 1:50 keine Meldung -
So, 02.10. 1:40 keine Meldung -
So, 02.10. 1:30 0.0 l/m2 in 1 Std. -
So, 02.10. 1:20 keine Meldung -
So, 02.10. 1:10 keine Meldung -
So, 02.10. 1:00 0.0 l/m2 in 1 Std. -
So, 02.10. 0:30 0.0 l/m2 in 1 Std. -
So, 02.10. 0:00 0.0 l/m2 in 1 Std. -
Sa, 01.10. 23:30 0.0 l/m2 in 1 Std. -
Sa, 01.10. 23:00 0.0 l/m2 in 1 Std. -
Ortszeit Stärke Spitze Richtung
km/h Bft. km/h Grad Sektor
So, 02.10. 2:00 19 3 43 260° W
Sa, 01.10. 20:00 28 4 54 300° NW
Sa, 01.10. 14:00 29 5 58 220° SW
Sa, 01.10. 8:00 33 5 50 200° S
Sa, 01.10. 2:00 24 4 41 200° S
Fr, 30.09. 20:00 15 3 26 190° S
Fr, 30.09. 14:00 7 2 22 270° W
Fr, 30.09. 8:00 4 1 7 200° S
Ortszeit Stärke Spitze Richtung
km/h Bft. km/h Grad Sektor
So, 02.10. 2:00 19 3 31 260° W
So, 02.10. 1:50 19 3 - 260° W
So, 02.10. 1:40 19 3 - 260° W
So, 02.10. 1:30 18 3 32 270° W
So, 02.10. 1:20 18 3 - 270° W
So, 02.10. 1:10 20 4 - 260° W
So, 02.10. 1:00 20 4 33 260° W
So, 02.10. 0:30 20 4 33 260° W
So, 02.10. 0:00 19 3 35 270° W
Sa, 01.10. 23:30 20 4 35 260° W
Sa, 01.10. 23:00 18 3 32 260° W
Ortszeit Untergrenze Bedeckung Gattung
total tief tief mittel hoch
So, 02.10. 2:00 <30 m 8/8 0/8 - - -
Sa, 01.10. 20:00 600 m 4/8 3/8 - - -
Sa, 01.10. 14:00 <30 m 8/8 0/8 - - -
Sa, 01.10. 8:00 <30 m 8/8 0/8 - - -
Sa, 01.10. 2:00 7200 m 8/8 0/8 - - -
Fr, 30.09. 20:00 - 0/8 0/8 - - -
Fr, 30.09. 14:00 660 m 6/8 6/8 - - -
Fr, 30.09. 8:00 - 0/8 0/8 - - -
Ortszeit Bedeckungsgrad in Achtel und Wolkenuntergrenze
So, 02.10. 2:00 8(<30m)
So, 02.10. 1:50 8(<30m)
So, 02.10. 1:40 8
So, 02.10. 1:30 8(<30m)
So, 02.10. 1:20 8(<30m)
So, 02.10. 1:10 8
So, 02.10. 1:00 8(<30m)
So, 02.10. 0:30 8(<30m)
So, 02.10. 0:00 8(<30m)
Sa, 01.10. 23:30 8(<30m)
Sa, 01.10. 23:00 8(<30m)
Ortszeit Luftdruck NN (hPa) Tendenz (hPa in 3 Std.)
So, 02.10. 2:00 1017 + 2,0
Sa, 01.10. 20:00 1011 + 2,0
Sa, 01.10. 14:00 1008 + 0,5
Sa, 01.10. 8:00 1009 - 1,2
Sa, 01.10. 2:00 1012 - 0,7
Fr, 30.09. 20:00 1012 0,0
Fr, 30.09. 14:00 1012 + 0,3
Fr, 30.09. 8:00 1011 + 1,4
Ortszeit Luftdruck NN (hPa) Tendenz (hPa in 3 Std.)
So, 02.10. 2:00 1017 + 2,0
So, 02.10. 1:50 1017 keine Meldung
So, 02.10. 1:40 1017 keine Meldung
So, 02.10. 1:30 1017 + 2,1
So, 02.10. 1:20 1017 keine Meldung
So, 02.10. 1:10 1017 keine Meldung
So, 02.10. 1:00 1016 + 2,3
So, 02.10. 0:30 1016 + 2,3
So, 02.10. 0:00 1016 + 2,4
Sa, 01.10. 23:30 1015 + 2,7
Sa, 01.10. 23:00 1015 + 3,1
Ortszeit Schneehöhe (cm)
So, 02.10. 2:00 0
Sa, 01.10. 20:00 0
Sa, 01.10. 14:00 0
Sa, 01.10. 8:00 0
Sa, 01.10. 2:00 0
Fr, 30.09. 20:00 0
Fr, 30.09. 14:00 0
Fr, 30.09. 8:00 0
Ortszeit Schneehöhe (cm)
So, 02.10. 2:00 0
So, 02.10. 1:50 0
So, 02.10. 1:40 0
So, 02.10. 1:30 0
So, 02.10. 1:20 0
So, 02.10. 1:10 0
So, 02.10. 1:00 0
So, 02.10. 0:30 0
So, 02.10. 0:00 0
Sa, 01.10. 23:30 0
Sa, 01.10. 23:00 0
Link zu dieser Seite / Seite empfehlen

Das Wetter in ...